Data for 03/28/2018

Time Sea-Level Adjusted Pressure Absolute Pressure Temperature Relative Humidity Dew Point   
(mb) (inHg) (mb) (inHg) (C) (F) (%) (C) (F)
00:05 1017 30.03 846 24.98 2.6 36.7 78 -0.9 30.4
00:10 1017 30.03 846 24.98 2.7 36.8 77 -0.9 30.3
00:15 1017 30.03 846 24.98 2.8 37 76 -1.1 30.1
00:20 1017 30.03 846 24.98 3 37.3 75 -1.1 30.1
00:25 1017 30.03 846 24.98 3.1 37.6 75 -1 30.2
00:30 1017 30.03 846 24.98 3.1 37.6 74 -1.1 30
00:35 1017 30.03 846 24.98 3.1 37.7 74 -1 30.2
00:40 1017 30.03 846 24.98 3.1 37.6 74 -1.1 30.1
00:45 1017 30.03 846 24.98 3.1 37.6 74 -1.1 30.1
00:50 1017 30.03 846 24.98 3.3 37.9 73 -1.2 29.9
00:55 1017 30.03 846 24.98 3.3 37.9 73 -1.1 30
01:00 1017 30.03 846 24.98 3.2 37.8 73 -1.2 29.9
01:05 1017 30.03 846 24.98 3.2 37.7 74 -1 30.1
01:10 1017 30.03 846 24.98 3.1 37.6 75 -1 30.3
01:15 1016 30 846 24.98 3.1 37.6 75 -1 30.3
01:20 1017 30.03 846 24.98 3.2 37.7 75 -0.9 30.5
01:25 1017 30.03 846 24.98 3 37.5 77 -0.7 30.8
01:30 1017 30.03 846 24.98 2.9 37.3 77 -0.7 30.8
01:35 1017 30.03 846 24.98 3.1 37.5 77 -0.6 30.8
01:40 1017 30.03 846 24.98 3.2 37.7 78 -0.3 31.5
01:45 1017 30.03 846 24.98 2.8 37 80 -0.4 31.3
01:50 1017 30.03 846 24.98 2 35.6 85 -0.3 31.4
01:55 1017 30.03 846 24.98 1.6 34.9 86 -0.5 31.1
02:00 1017 30.03 846 24.98 1.3 34.3 87 -0.6 30.9
02:05 1017 30.03 846 24.98 1.1 33.9 89 -0.6 30.9
02:10 1017 30.03 846 24.98 1 33.9 89 -0.5 31
02:15 1017 30.03 846 24.98 1.2 34.1 89 -0.5 31.2
02:20 1017 30.03 846 24.98 1.2 34.2 88 -0.5 31.1
02:25 1017 30.03 846 24.98 1.3 34.3 88 -0.5 31.1
02:30 1017 30.03 846 24.98 1 33.8 89 -0.6 30.9
02:35 1017 30.03 846 24.98 0.9 33.5 89 -0.7 30.8
02:40 1017 30.03 846 24.98 0.8 33.5 90 -0.7 30.8
02:45 1017 30.03 846 24.98 0.8 33.5 90 -0.6 30.8
02:50 1017 30.03 846 24.98 0.8 33.5 90 -0.6 30.9
02:55 1017 30.03 846 24.98 0.8 33.5 90 -0.6 30.9
03:00 1017 30.03 846 24.98 0.7 33.3 90 -0.7 30.7
03:05 1017 30.03 846 24.98 0.7 33.2 90 -0.7 30.7
03:10 1017 30.03 846 24.98 0.6 33.1 91 -0.8 30.6
03:15 1017 30.03 846 24.98 0.5 32.9 91 -0.8 30.6
03:20 1017 30.03 846 24.98 0.5 33 91 -0.7 30.7
03:25 1017 30.03 846 24.98 0.6 33.1 91 -0.7 30.8
03:30 1017 30.03 846 24.98 0.7 33.2 91 -0.6 30.9
03:35 1017 30.03 846 24.98 0.6 33.2 91 -0.7 30.8
03:40 1017 30.03 846 24.98 0.7 33.2 91 -0.6 31
03:45 1017 30.03 846 24.98 0.9 33.6 91 -0.4 31.2
03:50 1017 30.03 846 24.98 0.9 33.6 91 -0.5 31.2
03:55 1017 30.03 846 24.98 1 33.7 90 -0.5 31.1
04:00 1017 30.03 846 24.98 1 33.7 89 -0.6 30.9
04:05 1017 30.03 846 24.98 0.9 33.6 89 -0.6 30.9
04:10 1017 30.03 846 24.98 0.9 33.6 89 -0.7 30.8
04:15 1017 30.03 846 24.98 0.9 33.6 89 -0.7 30.8
04:20 1017 30.03 846 24.98 0.9 33.7 89 -0.6 30.9
04:25 1017 30.03 846 24.98 0.9 33.7 89 -0.7 30.8
04:30 1017 30.03 846 24.98 0.9 33.7 89 -0.7 30.8
04:35 1017 30.03 846 24.98 1 33.7 89 -0.7 30.8
04:40 1017 30.03 846 24.98 1 33.8 89 -0.7 30.8
04:45 1017 30.03 846 24.98 1 33.8 89 -0.6 30.8
04:50 1017 30.03 846 24.98 1.2 34.1 87 -0.7 30.8
04:55 1017 30.03 846 24.98 1.2 34.2 87 -0.7 30.8
05:00 1017 30.03 847 25.01 1.3 34.4 87 -0.5 31.1
05:05 1018 30.06 847 25.01 1.2 34.2 88 -0.5 31
05:10 1017 30.03 847 25.01 1.1 33.9 85 -1.1 29.9
05:15 1017 30.03 847 25.01 1.2 34.1 87 -0.8 30.5
05:20 1018 30.06 847 25.01 1.1 34 87 -0.8 30.5
05:25 1018 30.06 847 25.01 1 33.8 87 -0.9 30.4
05:30 1018 30.06 847 25.01 0.9 33.7 87 -1 30.2
05:35 1017 30.03 847 25.01 1.1 33.9 85 -1.1 30
05:40 1017 30.03 847 25.01 1.2 34.2 84 -1.3 29.7
05:45 1018 30.06 847 25.01 1.5 34.6 80 -1.6 29.1
05:50 1018 30.06 847 25.01 1.6 34.9 76 -2.1 28.3
05:55 1018 30.06 847 25.01 1.8 35.2 77 -1.9 28.6
06:00 1018 30.06 847 25.01 1.8 35.2 75 -2.2 28
06:05 1018 30.06 847 25.01 1.8 35.2 76 -2.1 28.3
06:10 1018 30.06 847 25.01 1.6 34.8 81 -1.4 29.5
06:15 1018 30.06 848 25.04 1.3 34.3 83 -1.3 29.6
06:20 1018 30.06 848 25.04 0.9 33.7 85 -1.3 29.7
06:25 1018 30.06 848 25.04 0.7 33.2 86 -1.4 29.5
06:30 1018 30.06 848 25.04 0.5 32.8 87 -1.4 29.5
06:35 1018 30.06 848 25.04 0.4 32.7 88 -1.4 29.5
06:40 1018 30.06 848 25.04 0.4 32.7 88 -1.4 29.4
06:45 1018 30.06 848 25.04 0.2 32.4 88 -1.5 29.3
06:50 1018 30.06 848 25.04 0.2 32.3 89 -1.5 29.3
06:55 1018 30.06 848 25.04 0.2 32.4 88 -1.5 29.2
07:00 1018 30.06 848 25.04 0.3 32.5 86 -1.8 28.7
07:05 1018 30.06 848 25.04 0.4 32.8 86 -1.7 28.9
07:10 1018 30.06 848 25.04 0.6 33.1 85 -1.6 29.1
07:15 1018 30.06 848 25.04 0.7 33.3 83 -1.8 28.8
07:20 1018 30.06 848 25.04 0.7 33.3 82 -2 28.3
07:25 1018 30.06 848 25.04 0.7 33.3 82 -2 28.4
07:30 1018 30.06 848 25.04 0.7 33.3 81 -2.1 28.2
07:35 1018 30.06 848 25.04 0.8 33.4 81 -2.2 28.1
07:40 1018 30.06 848 25.04 0.8 33.4 80 -2.3 27.9
07:45 1019 30.09 848 25.04 0.9 33.5 78 -2.5 27.5
07:50 1019 30.09 848 25.04 0.9 33.6 78 -2.5 27.5
07:55 1019 30.09 848 25.04 1 33.8 78 -2.4 27.7
08:00 1019 30.09 848 25.04 1 33.8 79 -2.3 27.9
08:05 1019 30.09 848 25.04 1 33.8 79 -2.3 27.9
08:10 1019 30.09 848 25.04 0.9 33.7 81 -2 28.5
08:15 1019 30.09 848 25.04 0.7 33.3 81 -2.1 28.2
08:20 1019 30.09 848 25.04 0.6 33.1 82 -2.1 28.1
08:25 1019 30.09 848 25.04 0.8 33.4 81 -2.1 28.2
08:30 1019 30.09 848 25.04 0.9 33.6 81 -1.9 28.5
08:35 1019 30.09 848 25.04 1.1 33.9 80 -1.9 28.5
08:40 1019 30.09 848 25.04 1.5 34.7 78 -1.9 28.7
08:45 1019 30.09 848 25.04 1.3 34.4 80 -1.7 29
08:50 1019 30.09 848 25.04 1.3 34.3 80 -1.8 28.7
08:55 1019 30.09 848 25.04 1.2 34.2 79 -1.9 28.5
09:00 1019 30.09 848 25.04 1.3 34.4 79 -2 28.5
09:05 1019 30.09 848 25.04 1.6 34.8 78 -1.9 28.5
09:10 1019 30.09 848 25.04 1.8 35.2 77 -1.9 28.6
09:15 1019 30.09 848 25.04 1.7 35.1 74 -2.4 27.7
09:20 1019 30.09 848 25.04 1.8 35.2 74 -2.5 27.6
09:25 1019 30.09 848 25.04 2 35.7 73 -2.3 27.9
09:30 1019 30.09 848 25.04 2.3 36.1 73 -2.1 28.2
09:35 1019 30.09 848 25.04 2.4 36.3 73 -2 28.4
09:40 1019 30.09 848 25.04 2.5 36.6 72 -1.9 28.5
09:45 1019 30.09 848 25.04 2.6 36.7 71 -2.2 28.1
09:50 1019 30.09 848 25.04 2.7 36.9 72 -1.8 28.8
09:55 1019 30.09 848 25.04 2.8 37.1 71 -1.9 28.5
10:00 1019 30.09 848 25.04 3 37.3 69 -2.1 28.2
10:05 1019 30.09 848 25.04 2.9 37.2 71 -1.8 28.7
10:10 1019 30.09 848 25.04 2.8 37.1 69 -2.3 27.9
10:15 1019 30.09 848 25.04 2.6 36.7 69 -2.5 27.6
10:20 1019 30.09 848 25.04 2.6 36.7 68 -2.6 27.3
10:25 1019 30.09 848 25.04 2.7 36.9 68 -2.5 27.4
10:30 1019 30.09 848 25.04 2.7 36.8 66 -3 26.6
10:35 1019 30.09 848 25.04 2.9 37.2 64 -3.3 26.1
10:40 1019 30.09 848 25.04 3.1 37.6 63 -3.2 26.3
10:45 1019 30.09 848 25.04 3.1 37.6 65 -2.9 26.7
10:50 1019 30.09 848 25.04 3.7 38.7 63 -2.8 27
10:55 1019 30.09 848 25.04 4.2 39.5 59 -3.1 26.5
11:00 1019 30.09 848 25.04 4 39.2 60 -3 26.6
11:05 1019 30.09 848 25.04 3.7 38.7 58 -3.9 25
11:10 1019 30.09 848 25.04 3.8 38.8 58 -3.8 25.2
11:15 1019 30.09 848 25.04 4.3 39.7 56 -3.8 25.2
11:20 1019 30.09 848 25.04 5.1 41.1 51 -4.1 24.6
11:25 1019 30.09 848 25.04 5 41.1 50 -4.5 23.9
11:30 1019 30.09 848 25.04 5.1 41.1 49 -4.8 23.4
11:35 1019 30.09 848 25.04 4.7 40.5 50 -4.7 23.5
11:40 1019 30.09 848 25.04 4.7 40.4 48 -5.4 22.3
11:45 1019 30.09 848 25.04 5.4 41.8 46 -5.3 22.5
11:50 1019 30.09 848 25.04 5.6 42.1 49 -4.4 24.1
11:55 1019 30.09 848 25.04 5.7 42.2 44 -5.5 22.1
12:00 1019 30.09 848 25.04 5.8 42.5 43 -5.8 21.5
12:05 1019 30.09 848 25.04 5.9 42.7 43 -5.7 21.7
12:10 1019 30.09 848 25.04 6.4 43.5 40 -6.3 20.7
12:15 1019 30.09 848 25.04 6.1 43.1 41 -6 21.1
12:20 1019 30.09 848 25.04 5.8 42.5 45 -5.4 22.4
12:25 1019 30.09 848 25.04 5.1 41.3 50 -4.4 24.1
12:30 1019 30.09 848 25.04 4.8 40.6 51 -4.6 23.6
12:35 1019 30.09 848 25.04 5.5 42 46 -5.1 22.8
12:40 1018 30.06 848 25.04 5.5 41.9 45 -5.5 22.1
12:45 1018 30.06 848 25.04 6.2 43.2 41 -5.9 21.3
12:50 1018 30.06 847 25.01 6.9 44.4 38 -6.4 20.5
12:55 1018 30.06 847 25.01 7.7 45.8 36 -6.4 20.6
13:00 1018 30.06 847 25.01 8.1 46.5 33 -7.1 19.2
13:05 1018 30.06 847 25.01 8.3 46.9 30 -8.4 16.9
13:10 1018 30.06 847 25.01 7.6 45.7 30 -8.7 16.3
13:15 1018 30.06 847 25.01 7.4 45.3 30 -9 15.9
13:20 1018 30.06 847 25.01 7.7 45.8 28 -9.6 14.8
13:25 1018 30.06 847 25.01 6.9 44.5 40 -5.7 21.8
13:30 1018 30.06 847 25.01 5.9 42.6 42 -6 21.2
13:35 1018 30.06 847 25.01 6.5 43.7 39 -6.4 20.4
13:40 1018 30.06 847 25.01 5.2 41.3 42 -6.8 19.8
13:45 1018 30.06 847 25.01 5 41.1 44 -6.2 20.8
13:50 1018 30.06 847 25.01 5.1 41.2 45 -5.9 21.3
13:55 1018 30.06 847 25.01 5.4 41.6 50 -4.2 24.5
14:00 1018 30.06 847 25.01 5.1 41.2 53 -3.7 25.3
14:05 1018 30.06 847 25.01 5 41 51 -4.2 24.5
14:10 1018 30.06 847 25.01 5.1 41.2 43 -6.5 20.3
14:15 1018 30.06 847 25.01 5.6 42 42 -6.2 20.9
14:20 1018 30.06 847 25.01 5.6 42 40 -6.8 19.7
14:25 1017 30.03 847 25.01 6.2 43.2 32 -9.1 15.6
14:30 1017 30.03 847 25.01 7.6 45.7 26 -10.7 12.8
14:35 1017 30.03 847 25.01 7.7 45.9 28 -9.9 14.2
14:40 1017 30.03 847 25.01 8.2 46.7 27 -9.9 14.1
14:45 1017 30.03 846 24.98 7.1 44.7 37 -6.8 19.8
14:50 1017 30.03 846 24.98 5.8 42.5 34 -8.7 16.3
14:55 1017 30.03 846 24.98 5.7 42.2 35 -8.5 16.8
15:00 1017 30.03 846 24.98 6 42.8 31 -10.1 13.8
15:05 1017 30.03 846 24.98 6.5 43.7 28 -10.6 12.9
15:10 1017 30.03 846 24.98 6.7 44 31 -9.3 15.2
15:15 1017 30.03 846 24.98 6.8 44.3 27 -11 12.1
15:20 1017 30.03 846 24.98 7.2 44.9 26 -11 12.3
15:25 1017 30.03 846 24.98 7.1 44.7 27 -10.7 12.7
15:30 1017 30.03 846 24.98 6.7 44 35 -7.7 18.2
15:35 1017 30.03 846 24.98 6 42.7 36 -8 17.5
15:40 1017 30.03 846 24.98 5.8 42.5 32 -9.4 15
15:45 1017 30.03 846 24.98 5.8 42.5 32 -9.7 14.5
15:50 1017 30.03 846 24.98 6.3 43.4 30 -9.8 14.3
15:55 1017 30.03 846 24.98 6.6 43.8 30 -10 14.1
16:00 1017 30.03 846 24.98 6.7 44.1 29 -9.9 14.2
16:05 1017 30.03 846 24.98 6.8 44.2 30 -9.5 14.9
16:10 1017 30.03 846 24.98 7.3 45.1 22 -13.2 8.3
16:15 1016 30 846 24.98 7.7 45.9 21 -13.1 8.4
16:20 1016 30 846 24.98 8.1 46.5 22 -12.6 9.3
16:25 1016 30 846 24.98 8 46.4 21 -13 8.6
16:30 1016 30 846 24.98 8.2 46.8 22 -12.2 10
16:35 1016 30 846 24.98 8 46.4 22 -12.5 9.5
16:40 1016 30 846 24.98 8 46.5 22 -12.5 9.5
16:45 1016 30 846 24.98 8.7 47.6 20 -13.3 8.1
16:50 1016 30 846 24.98 8.5 47.3 21 -12.5 9.5
16:55 1016 30 846 24.98 8.3 47 23 -11.9 10.6
17:00 1016 30 845 24.95 8.3 46.9 21 -12.8 8.9
17:05 1016 30 845 24.95 8.6 47.4 22 -12.2 10.1
17:10 1016 30 846 24.98 8.4 47.2 21 -12.8 9
17:15 1016 30 846 24.98 7.9 46.2 21 -13.1 8.4
17:20 1016 30 846 24.98 7.6 45.7 22 -12.6 9.3
17:25 1016 30 846 24.98 7.6 45.8 22 -12.6 9.3
17:30 1016 30 846 24.98 7.6 45.8 22 -12.8 9
17:35 1016 30 846 24.98 7.6 45.6 22 -12.8 9
17:40 1016 30 846 24.98 7.4 45.2 22 -12.8 9
17:45 1016 30 846 24.98 7.3 45.1 22 -12.9 8.8
17:50 1016 30 846 24.98 7.5 45.4 22 -13.2 8.2
17:55 1016 30 846 24.98 7.7 45.8 23 -12.4 9.6
18:00 1016 30 845 24.95 8 46.4 22 -12.5 9.4
18:05 1016 30 845 24.95 8.2 46.8 20 -13.4 7.9
18:10 1016 30 846 24.98 8.1 46.5 20 -13.8 7.2
18:15 1016 30 846 24.98 7.6 45.7 22 -12.8 9
18:20 1016 30 846 24.98 7.8 46 21 -13.1 8.4
18:25 1016 30 846 24.98 7.5 45.4 21 -13.6 7.4
18:30 1016 30 846 24.98 7.3 45.1 21 -13.9 7
18:35 1016 30 846 24.98 7.2 45 21 -13.4 7.8
18:40 1016 30 846 24.98 7 44.6 23 -12.6 9.3
18:45 1017 30.03 846 24.98 6.9 44.5 24 -12.3 9.9
18:50 1017 30.03 846 24.98 6.9 44.5 26 -11.5 11.3
18:55 1017 30.03 846 24.98 6.8 44.2 27 -11.2 11.8
19:00 1017 30.03 846 24.98 6.6 43.9 27 -11.3 11.6
19:05 1017 30.03 846 24.98 6.6 43.8 28 -10.6 13
19:10 1017 30.03 846 24.98 6.4 43.6 29 -10.3 13.4
19:15 1017 30.03 846 24.98 6.2 43.2 29 -10.5 13.2
19:20 1017 30.03 846 24.98 6.1 42.9 30 -10.3 13.4
19:25 1017 30.03 846 24.98 5.9 42.7 31 -10 14
19:30 1017 30.03 846 24.98 5.7 42.3 32 -9.8 14.4
19:35 1017 30.03 846 24.98 5.6 42 31 -10.4 13.4
19:40 1017 30.03 846 24.98 5.4 41.7 32 -10.2 13.7
19:45 1017 30.03 846 24.98 5.2 41.4 32 -10 14
19:50 1017 30.03 846 24.98 5.1 41.1 33 -10 14
19:55 1017 30.03 846 24.98 4.9 40.7 33 -9.9 14.1
20:00 1017 30.03 846 24.98 4.7 40.4 34 -9.8 14.3
20:05 1017 30.03 846 24.98 4.5 40.1 34 -10.2 13.7
20:10 1017 30.03 846 24.98 4.4 39.9 35 -9.9 14.2
20:15 1017 30.03 846 24.98 4.3 39.7 35 -9.9 14.1
20:20 1017 30.03 846 24.98 4.2 39.5 35 -9.9 14.2
20:25 1017 30.03 847 25.01 4.1 39.4 36 -9.7 14.5
20:30 1017 30.03 847 25.01 4.1 39.3 37 -9.5 14.9
20:35 1018 30.06 847 25.01 4 39.2 38 -9.2 15.5
20:40 1018 30.06 847 25.01 3.9 38.9 38 -9.1 15.7
20:45 1018 30.06 847 25.01 3.7 38.7 39 -9.1 15.6
20:50 1018 30.06 847 25.01 3.6 38.6 38 -9.2 15.4
20:55 1018 30.06 847 25.01 3.6 38.4 39 -9.1 15.6
21:00 1018 30.06 847 25.01 3.4 38.2 39 -9.1 15.7
21:05 1018 30.06 847 25.01 3.3 38 40 -9 15.8
21:10 1018 30.06 847 25.01 3.2 37.8 41 -8.9 16
21:15 1018 30.06 847 25.01 3.1 37.6 42 -8.7 16.3
21:20 1018 30.06 847 25.01 2.9 37.3 43 -8.5 16.7
21:25 1018 30.06 847 25.01 2.8 37.1 44 -8.4 16.9
21:30 1018 30.06 847 25.01 2.7 36.9 44 -8.3 17
21:35 1018 30.06 847 25.01 2.6 36.7 45 -8.3 17.1
21:40 1018 30.06 847 25.01 2.6 36.6 47 -7.7 18.2
21:45 1018 30.06 847 25.01 2.4 36.3 49 -7.2 19
21:50 1018 30.06 848 25.04 2.2 36 49 -7.5 18.5
21:55 1018 30.06 848 25.04 2.3 36.1 47 -7.9 17.8
22:00 1018 30.06 848 25.04 2.4 36.3 46 -8.1 17.5
22:05 1018 30.06 848 25.04 2.4 36.3 47 -7.9 17.8
22:10 1018 30.06 848 25.04 2.3 36.1 47 -7.8 18
22:15 1018 30.06 848 25.04 2.1 35.9 48 -7.7 18.2
22:20 1019 30.09 848 25.04 2 35.7 49 -7.6 18.3
22:25 1019 30.09 848 25.04 2 35.5 49 -7.7 18.1
22:30 1019 30.09 848 25.04 1.9 35.3 49 -7.7 18.2
22:35 1019 30.09 848 25.04 1.8 35.2 49 -7.9 17.7
22:40 1019 30.09 848 25.04 1.8 35.2 48 -8.2 17.3
22:45 1019 30.09 848 25.04 1.9 35.4 47 -8.2 17.2
22:50 1019 30.09 848 25.04 1.9 35.5 48 -8 17.6
22:55 1019 30.09 848 25.04 2 35.5 48 -7.9 17.7
23:00 1019 30.09 848 25.04 2 35.6 48 -7.8 17.9
23:05 1019 30.09 848 25.04 1.9 35.4 50 -7.5 18.5
23:10 1019 30.09 848 25.04 1.8 35.2 52 -7.2 19.1
23:15 1019 30.09 848 25.04 1.5 34.7 52 -7.3 18.9
23:20 1019 30.09 848 25.04 1.4 34.5 52 -7.5 18.5
23:25 1019 30.09 848 25.04 1.5 34.7 50 -7.7 18.1
23:30 1019 30.09 848 25.04 1.6 34.9 49 -7.9 17.8
23:35 1019 30.09 848 25.04 1.7 35.1 47 -8.3 17
23:40 1019 30.09 848 25.04 1.9 35.3 47 -8.4 17
23:45 1019 30.09 848 25.04 1.9 35.4 47 -8.2 17.3
23:50 1019 30.09 848 25.04 1.8 35.2 48 -8.2 17.2
23:55 1019 30.09 848 25.04 1.8 35.2 48 -8.1 17.4
24:00 1019 30.09 848 25.04 1.6 34.9 49 -7.9 17.9